createdAt,value
2019-05-13T00:01:14.491Z,99595.65
2019-05-13T00:03:44.083Z,99595.69
2019-05-13T00:06:24.065Z,99591.47
2019-05-13T00:08:54.329Z,99590.64
2019-05-13T00:11:29.747Z,99592.73
2019-05-13T00:14:18.401Z,99590.97
2019-05-13T00:16:47.731Z,99587.70
2019-05-13T00:19:17.041Z,99583.70
2019-05-13T00:21:46.357Z,99589.73
2019-05-13T00:24:15.690Z,99588.05
2019-05-13T00:26:45.007Z,99584.83
2019-05-13T00:29:14.515Z,99582.52
2019-05-13T00:31:43.993Z,99576.88
2019-05-13T00:34:14.373Z,99580.42
2019-05-13T00:37:10.772Z,99577.42
2019-05-13T00:39:39.560Z,99582.46
2019-05-13T00:42:08.898Z,99581.41
2019-05-13T00:44:38.220Z,99576.97
2019-05-13T00:47:07.538Z,99575.06
2019-05-13T00:49:37.221Z,99569.52
2019-05-13T00:52:25.879Z,99566.37
2019-05-13T00:54:55.258Z,99571.16
2019-05-13T00:57:24.649Z,99565.19
2019-05-13T00:59:54.183Z,99566.33
2019-05-13T01:02:44.766Z,99564.27
2019-05-13T01:05:24.633Z,99567.81
2019-05-13T01:07:53.948Z,99565.27
2019-05-13T01:10:23.778Z,99569.58
2019-05-13T01:12:59.880Z,99562.29
2019-05-13T01:15:29.248Z,99566.72
2019-05-13T01:17:58.580Z,99569.81
2019-05-13T01:20:27.894Z,99561.97
2019-05-13T01:23:03.663Z,99568.95
2019-05-13T01:25:39.034Z,99566.67
2019-05-13T01:28:08.321Z,99568.20
2019-05-13T01:30:37.651Z,99560.87
2019-05-13T01:33:26.332Z,99553.98
2019-05-13T01:35:55.661Z,99556.73
2019-05-13T01:38:24.973Z,99555.35
2019-05-13T01:40:54.564Z,99557.02
2019-05-13T01:43:24.649Z,99564.08
2019-05-13T01:46:14.084Z,99565.06
2019-05-13T01:48:43.809Z,99568.51
2019-05-13T01:51:33.558Z,99576.02
2019-05-13T01:54:04.143Z,99577.27
2019-05-13T01:56:53.657Z,99578.23
2019-05-13T01:59:29.641Z,99576.43
2019-05-13T02:04:39.190Z,99585.53
2019-05-13T02:07:08.532Z,99587.93
2019-05-13T02:09:37.855Z,99588.84
2019-05-13T02:12:07.185Z,99596.92
2019-05-13T02:14:36.497Z,99586.91
2019-05-13T02:17:05.834Z,99592.02
2019-05-13T02:19:35.169Z,99590.94
2019-05-13T02:22:04.485Z,99589.24
2019-05-13T02:24:34.342Z,99586.83
2019-05-13T02:27:25.519Z,99584.02
2019-05-13T02:30:16.099Z,99590.88
2019-05-13T02:35:38.970Z,99592.77
2019-05-13T02:38:19.850Z,99589.30
2019-05-13T02:40:44.970Z,99595.20
2019-05-13T02:43:14.365Z,99592.77
2019-05-13T02:45:43.685Z,99597.09
2019-05-13T02:48:13.012Z,99588.30
2019-05-13T02:50:44.118Z,99593.77
2019-05-13T02:53:18.700Z,99601.59
2019-05-13T02:55:48.036Z,99605.52
2019-05-13T02:58:17.387Z,99600.44
2019-05-13T03:00:47.024Z,99597.62
2019-05-13T03:03:16.354Z,99600.80
2019-05-13T03:05:45.624Z,99600.66
2019-05-13T03:08:33.632Z,99600.30
2019-05-13T03:10:53.048Z,99608.62
2019-05-13T03:13:27.621Z,99600.30
2019-05-13T03:18:52.512Z,99609.45
2019-05-13T03:21:28.314Z,99603.58
2019-05-13T03:23:57.652Z,99599.78
2019-05-13T03:26:27.336Z,99606.59
2019-05-13T03:28:56.683Z,99611.01
2019-05-13T03:31:26.960Z,99616.56
2019-05-13T03:34:16.683Z,99615.59
2019-05-13T03:40:16.851Z,99626.02
2019-05-13T03:57:54.976Z,99635.45
2019-05-13T04:00:24.329Z,99635.22
2019-05-13T04:05:56.093Z,99637.80
2019-05-13T04:08:25.489Z,99645.25
2019-05-13T04:10:54.850Z,99642.64
2019-05-13T04:13:24.229Z,99655.49
2019-05-13T04:15:53.637Z,99649.91
2019-05-13T04:18:23.784Z,99659.59
2019-05-13T04:21:02.848Z,99661.40
2019-05-13T04:23:42.636Z,99654.62
2019-05-13T04:26:16.834Z,99659.34
2019-05-13T04:28:46.311Z,99663.51
2019-05-13T04:31:28.315Z,99658.86
2019-05-13T04:33:57.666Z,99659.19
2019-05-13T04:36:27.075Z,99661.56
2019-05-13T04:41:58.604Z,99649.36
2019-05-13T04:44:35.149Z,99650.91
2019-05-13T04:53:07.745Z,99659.63
2019-05-13T04:55:52.403Z,99652.06
2019-05-13T04:58:23.107Z,99662.05
2019-05-13T05:08:03.193Z,99651.80
2019-05-13T05:11:32.211Z,99653.47
2019-05-13T05:18:06.183Z,99660.44
2019-05-13T05:27:17.749Z,99676.69
2019-05-13T05:30:26.985Z,99678.98
2019-05-13T05:33:34.893Z,99677.39
2019-05-13T05:36:44.130Z,99675.59
2019-05-13T05:39:32.826Z,99674.69
2019-05-13T05:42:02.392Z,99675.39
2019-05-13T05:45:18.818Z,99674.66
2019-05-13T06:05:58.605Z,99674.05
2019-05-13T06:08:27.934Z,99665.27
2019-05-13T06:10:57.321Z,99664.45
2019-05-13T06:13:26.637Z,99662.00
2019-05-13T06:15:56.043Z,99663.38
2019-05-13T06:18:25.362Z,99661.20
2019-05-13T06:20:54.688Z,99665.09
2019-05-13T06:23:35.296Z,99661.77
2019-05-13T06:26:04.634Z,99658.73
2019-05-13T06:28:34.201Z,99663.69
2019-05-13T06:31:03.809Z,99655.71
2019-05-13T06:33:33.679Z,99656.82
2019-05-13T06:36:03.168Z,99662.59
2019-05-13T06:38:32.802Z,99660.39
2019-05-13T06:41:07.081Z,99665.87
2019-05-13T06:43:33.138Z,99661.48
2019-05-13T06:46:02.475Z,99665.61
2019-05-13T06:48:32.293Z,99660.66
2019-05-13T06:51:02.600Z,99661.72
2019-05-13T06:53:32.248Z,99659.80
2019-05-13T06:56:01.710Z,99661.72
2019-05-13T06:58:32.480Z,99669.15
2019-05-13T07:01:03.715Z,99666.13
2019-05-13T07:03:33.113Z,99670.22
2019-05-13T07:06:02.436Z,99658.87
2019-05-13T07:08:31.775Z,99661.64
2019-05-13T07:11:17.198Z,99663.18
2019-05-13T07:13:32.411Z,99662.31
2019-05-13T07:16:01.736Z,99660.34
2019-05-13T07:18:32.370Z,99660.52
2019-05-13T07:21:02.332Z,99652.11
2019-05-13T07:23:32.055Z,99661.31
2019-05-13T07:26:02.043Z,99657.70
2019-05-13T07:28:32.451Z,99656.81
2019-05-13T07:31:02.380Z,99657.36
2019-05-13T07:33:32.258Z,99654.13
2019-05-13T07:36:03.536Z,99654.92
2019-05-13T07:38:33.221Z,99649.86
2019-05-13T07:41:03.978Z,99658.72
2019-05-13T07:43:33.756Z,99652.04
2019-05-13T07:46:03.158Z,99647.89
2019-05-13T07:48:32.595Z,99648.78
2019-05-13T07:51:04.665Z,99650.48
2019-05-13T07:53:32.921Z,99654.80
2019-05-13T07:56:02.327Z,99652.22
2019-05-13T07:58:37.232Z,99656.25
2019-05-13T08:01:02.767Z,99649.77
2019-05-13T08:03:32.032Z,99648.64
2019-05-13T08:06:02.170Z,99652.95
2019-05-13T08:08:32.374Z,99650.26
2019-05-13T08:11:01.726Z,99648.24
2019-05-13T08:13:31.579Z,99653.08
2019-05-13T08:16:01.881Z,99655.31
2019-05-13T08:18:32.032Z,99647.56
2019-05-13T08:21:02.180Z,99656.30
2019-05-13T08:23:32.521Z,99657.09
2019-05-13T08:26:02.694Z,99643.63
2019-05-13T08:28:32.539Z,99655.83
2019-05-13T08:31:02.322Z,99652.94
2019-05-13T08:33:32.306Z,99651.16
2019-05-13T08:36:01.964Z,99646.84
2019-05-13T08:38:32.068Z,99643.75
2019-05-13T08:41:02.062Z,99635.84
2019-05-13T08:43:31.897Z,99636.83
2019-05-13T08:46:02.193Z,99635.55
2019-05-13T08:48:32.361Z,99632.51
2019-05-13T08:51:03.066Z,99628.56
2019-05-13T08:53:32.878Z,99622.43
2019-05-13T08:56:02.364Z,99632.04
2019-05-13T08:58:32.266Z,99621.70
2019-05-13T09:01:02.345Z,99626.22
2019-05-13T09:03:32.891Z,99627.12
2019-05-13T09:06:02.914Z,99627.12
2019-05-13T09:08:32.401Z,99629.73
2019-05-13T09:11:02.322Z,99620.23
2019-05-13T09:13:33.042Z,99626.41
2019-05-13T09:16:02.800Z,99626.41
2019-05-13T09:18:32.491Z,99630.67
2019-05-13T09:21:02.823Z,99624.69
2019-05-13T09:23:33.834Z,99625.13
2019-05-13T09:26:03.174Z,99626.73
2019-05-13T09:28:32.729Z,99626.03
2019-05-13T09:31:02.339Z,99626.03
2019-05-13T09:33:32.707Z,99612.56
2019-05-13T09:36:02.448Z,99612.56
2019-05-13T09:38:32.723Z,99622.34
2019-05-13T09:41:02.327Z,99622.34
2019-05-13T09:43:31.856Z,99617.16
2019-05-13T09:46:01.979Z,99625.43
2019-05-13T09:48:32.126Z,99621.67
2019-05-13T09:51:02.398Z,99606.05
2019-05-13T09:53:32.754Z,99620.13
2019-05-13T09:56:02.668Z,99620.13
2019-05-13T09:58:33.028Z,99607.80
2019-05-13T10:01:02.658Z,99612.96
2019-05-13T10:03:33.106Z,99612.96
2019-05-13T10:06:02.882Z,99594.09
2019-05-13T10:08:32.761Z,99594.09
2019-05-13T10:11:02.224Z,99587.58
2019-05-13T10:13:32.046Z,99604.23
2019-05-13T10:16:01.467Z,99615.47
2019-05-13T10:18:32.647Z,99615.47
2019-05-13T10:21:03.174Z,99610.61
2019-05-13T10:23:33.501Z,99604.31
2019-05-13T10:26:05.997Z,99612.05
2019-05-13T10:28:35.779Z,99612.05
2019-05-13T10:31:05.449Z,99609.08
2019-05-13T10:33:34.976Z,99609.08
2019-05-13T10:36:04.755Z,99583.50
2019-05-13T10:38:34.092Z,99586.95
2019-05-13T10:41:03.937Z,99586.95
2019-05-13T10:43:39.066Z,99582.77
2019-05-13T10:46:05.129Z,99582.77
2019-05-13T10:48:34.456Z,99592.88
2019-05-13T10:51:03.965Z,99590.75
2019-05-13T10:53:33.286Z,99585.48
2019-05-13T10:56:03.495Z,99584.34
2019-05-13T10:58:33.002Z,99584.34
2019-05-13T11:01:03.052Z,99560.42
2019-05-13T11:03:33.164Z,99560.42
2019-05-13T11:06:02.649Z,99585.67
2019-05-13T11:08:33.124Z,99572.28
2019-05-13T11:11:02.784Z,99572.66
2019-05-13T11:13:49.613Z,99575.77
2019-05-13T11:16:03.221Z,99587.12
2019-05-13T11:18:34.194Z,99587.12
2019-05-13T11:21:03.814Z,99579.14
2019-05-13T11:23:33.143Z,99563.80
2019-05-13T11:26:03.362Z,99563.80
2019-05-13T11:28:33.065Z,99576.36
2019-05-13T11:31:03.228Z,99580.98
2019-05-13T11:33:33.071Z,99560.89
2019-05-13T11:36:03.484Z,99560.89
2019-05-13T11:38:33.168Z,99573.67
2019-05-13T11:41:03.014Z,99577.69
2019-05-13T11:43:33.202Z,99571.65
2019-05-13T11:46:03.314Z,99570.52
2019-05-13T11:48:32.768Z,99568.28
2019-05-13T11:51:03.798Z,99552.63
2019-05-13T11:53:34.478Z,99552.63
2019-05-13T11:56:04.185Z,99551.09
2019-05-13T11:58:33.531Z,99557.92
2019-05-13T12:01:03.617Z,99552.33
2019-05-13T12:03:33.087Z,99557.09
2019-05-13T12:06:02.823Z,99555.52
2019-05-13T12:08:34.091Z,99555.52
2019-05-13T12:11:05.275Z,99554.58
2019-05-13T12:13:34.723Z,99554.58
2019-05-13T12:16:04.122Z,99531.46
2019-05-13T12:18:33.454Z,99544.04
2019-05-13T12:21:03.729Z,99554.52
2019-05-13T12:23:33.651Z,99554.52
2019-05-13T12:26:04.245Z,99540.52
2019-05-13T12:28:34.037Z,99528.31
2019-05-13T12:31:04.194Z,99550.13
2019-05-13T12:33:52.861Z,99545.39
2019-05-13T12:36:23.499Z,99478.61
2019-05-13T12:39:14.396Z,99517.97
2019-05-13T12:41:48.621Z,99548.73
2019-05-13T12:44:17.946Z,99547.05
2019-05-13T12:46:50.458Z,99550.91
2019-05-13T12:49:47.081Z,99535.13
2019-05-13T12:52:16.428Z,99549.39
2019-05-13T12:55:05.311Z,99549.84
2019-05-13T12:57:47.081Z,99533.69
2019-05-13T13:03:36.617Z,99525.06
2019-05-13T13:06:27.262Z,99525.06
2019-05-13T13:08:54.815Z,99543.87
2019-05-13T13:11:24.227Z,99543.87
2019-05-13T13:14:15.469Z,99539.72
2019-05-13T13:17:04.226Z,99533.20
2019-05-13T13:19:54.864Z,99523.86
2019-05-13T13:22:34.495Z,99527.34
2019-05-13T13:25:52.401Z,99527.34
2019-05-13T13:28:23.826Z,99516.79
2019-05-13T13:30:56.092Z,99519.18
2019-05-13T13:33:25.424Z,99530.88
2019-05-13T13:35:59.715Z,99521.89
2019-05-13T13:38:32.648Z,99519.58
2019-05-13T13:41:07.735Z,99522.99
2019-05-13T13:43:43.027Z,99513.25
2019-05-13T13:46:41.258Z,99509.82
2019-05-13T13:49:23.088Z,99509.82
2019-05-13T13:51:57.997Z,99508.91
2019-05-13T13:54:27.333Z,99510.16
2019-05-13T13:56:56.836Z,99504.59
2019-05-13T13:59:26.175Z,99501.07
2019-05-13T14:01:55.647Z,99510.63
2019-05-13T14:04:24.910Z,99512.66
2019-05-13T14:09:44.351Z,99501.41
2019-05-13T14:12:13.686Z,99477.64
2019-05-13T14:14:43.001Z,99491.80
2019-05-13T14:17:12.336Z,99499.69
2019-05-13T14:19:42.267Z,99503.50
2019-05-13T14:22:17.882Z,99502.14
2019-05-13T14:24:47.397Z,99496.21
2019-05-13T14:27:16.715Z,99497.54
2019-05-13T14:29:49.152Z,99489.24
2019-05-13T14:32:48.075Z,99483.21
2019-05-13T14:35:17.404Z,99483.21
2019-05-13T14:37:46.756Z,99480.31
2019-05-13T14:40:55.982Z,99470.27
2019-05-13T14:43:25.329Z,99473.69
2019-05-13T14:45:54.799Z,99474.86
2019-05-13T14:48:24.123Z,99477.36
2019-05-13T14:50:53.455Z,99492.36
2019-05-13T14:53:22.779Z,99478.08
2019-05-13T14:55:52.114Z,99479.38
2019-05-13T14:58:21.978Z,99467.36
2019-05-13T15:01:11.209Z,99465.17
2019-05-13T15:03:34.494Z,99458.15
2019-05-13T15:06:11.992Z,99461.72
2019-05-13T15:08:47.244Z,99455.24
2019-05-13T15:11:16.582Z,99449.51
2019-05-13T15:13:46.138Z,99447.77
2019-05-13T15:16:15.537Z,99461.06
2019-05-13T15:18:44.959Z,99458.86
2019-05-13T15:21:14.350Z,99460.23
2019-05-13T15:23:43.684Z,99452.86
2019-05-13T15:26:12.996Z,99455.16
2019-05-13T15:28:42.390Z,99459.48
2019-05-13T15:31:12.081Z,99450.14
2019-05-13T15:33:41.759Z,99442.44
2019-05-13T15:36:17.958Z,99449.64
2019-05-13T15:38:47.277Z,99454.77
2019-05-13T15:41:16.604Z,99459.75
2019-05-13T15:43:45.930Z,99447.98
2019-05-13T15:46:22.150Z,99450.33
2019-05-13T15:48:51.823Z,99448.29
2019-05-13T15:51:22.108Z,99454.31
2019-05-13T15:54:01.201Z,99450.70
2019-05-13T15:56:34.015Z,99441.84
2019-05-13T15:59:08.692Z,99445.84
2019-05-13T16:01:55.427Z,99444.03
2019-05-13T16:04:24.767Z,99442.59
2019-05-13T16:06:54.179Z,99447.20
2019-05-13T16:09:23.503Z,99431.01
2019-05-13T16:11:52.838Z,99444.36
2019-05-13T16:14:22.406Z,99447.32
2019-05-13T16:16:51.738Z,99448.20
2019-05-13T16:19:22.042Z,99450.39
2019-05-13T16:22:11.978Z,99434.75
2019-05-13T16:24:47.559Z,99441.34
2019-05-13T16:27:16.901Z,99450.00
2019-05-13T16:29:46.397Z,99448.36
2019-05-13T16:32:15.737Z,99437.63
2019-05-13T16:34:45.049Z,99437.43
2019-05-13T16:37:14.391Z,99440.53
2019-05-13T16:39:43.724Z,99433.84
2019-05-13T16:42:13.042Z,99440.45
2019-05-13T16:44:51.602Z,99439.94
2019-05-13T16:47:26.131Z,99445.09
2019-05-13T16:50:02.706Z,99447.36
2019-05-13T16:52:37.983Z,99448.98
2019-05-13T16:55:47.227Z,99441.23
2019-05-13T16:58:16.552Z,99445.82
2019-05-13T17:01:25.787Z,99446.64
2019-05-13T17:03:55.178Z,99446.09
2019-05-13T17:06:24.613Z,99448.38
2019-05-13T17:08:54.032Z,99445.13
2019-05-13T17:11:23.457Z,99445.13
2019-05-13T17:14:12.134Z,99455.68
2019-05-13T17:16:41.587Z,99455.68
2019-05-13T17:19:12.130Z,99452.57
2019-05-13T17:22:02.548Z,99452.32
2019-05-13T17:24:53.982Z,99446.77
2019-05-13T17:27:35.072Z,99455.80
2019-05-13T17:30:44.323Z,99455.80
2019-05-13T17:33:13.650Z,99447.04
2019-05-13T17:35:42.974Z,99449.12
2019-05-13T17:38:12.313Z,99447.99
2019-05-13T17:40:42.142Z,99443.38
2019-05-13T17:43:12.062Z,99443.38
2019-05-13T17:45:41.789Z,99443.39
2019-05-13T17:48:25.471Z,99444.02
2019-05-13T17:50:42.383Z,99423.81
2019-05-13T17:53:11.710Z,99447.30
2019-05-13T17:55:41.051Z,99446.91
2019-05-13T17:58:11.633Z,99446.91
2019-05-13T18:00:41.573Z,99446.04
2019-05-13T18:03:11.485Z,99453.14
2019-05-13T18:05:42.088Z,99452.83
2019-05-13T18:08:11.538Z,99452.83
2019-05-13T18:10:42.004Z,99463.41
2019-05-13T18:13:12.635Z,99463.41
2019-05-13T18:15:42.112Z,99454.58
2019-05-13T18:18:12.021Z,99456.23
2019-05-13T18:20:41.620Z,99459.72
2019-05-13T18:23:12.151Z,99453.62
2019-05-13T18:25:42.165Z,99453.62
2019-05-13T18:28:26.773Z,99450.61
2019-05-13T18:30:42.595Z,99449.58
2019-05-13T18:33:12.260Z,99455.20
2019-05-13T18:35:41.942Z,99455.14
2019-05-13T18:38:11.915Z,99452.13
2019-05-13T18:40:41.944Z,99450.61
2019-05-13T18:43:11.521Z,99450.61
2019-05-13T18:45:42.022Z,99451.07
2019-05-13T18:48:21.660Z,99437.67
2019-05-13T18:50:52.133Z,99455.81
2019-05-13T18:53:21.633Z,99456.58
2019-05-13T18:55:52.455Z,99449.75
2019-05-13T18:58:22.365Z,99460.14
2019-05-13T19:00:52.235Z,99461.06
2019-05-13T19:03:21.996Z,99459.68
2019-05-13T19:05:51.309Z,99469.72
2019-05-13T19:08:21.411Z,99469.20
2019-05-13T19:10:52.231Z,99474.86
2019-05-13T19:13:22.068Z,99468.52
2019-05-13T19:15:51.840Z,99466.22
2019-05-13T19:18:21.511Z,99467.59
2019-05-13T19:20:51.319Z,99467.56
2019-05-13T19:23:21.010Z,99471.96
2019-05-13T19:25:51.329Z,99467.92
2019-05-13T19:28:22.284Z,99471.05
2019-05-13T19:30:51.884Z,99474.95
2019-05-13T19:33:22.126Z,99473.84
2019-05-13T19:35:52.429Z,99476.50
2019-05-13T19:38:21.771Z,99472.52
2019-05-13T19:40:51.103Z,99470.22
2019-05-13T19:43:21.786Z,99477.83
2019-05-13T19:45:51.875Z,99472.07
2019-05-13T19:48:21.749Z,99478.91
2019-05-13T19:50:52.095Z,99478.45
2019-05-13T19:53:21.584Z,99478.91
2019-05-13T19:55:52.012Z,99481.47
2019-05-13T19:58:21.680Z,99479.01
2019-05-13T20:00:51.643Z,99481.89
2019-05-13T20:03:22.600Z,99479.12
2019-05-13T20:05:52.317Z,99486.53
2019-05-13T20:08:21.679Z,99482.59
2019-05-13T20:10:52.936Z,99483.24
2019-05-13T20:13:22.278Z,99483.17
2019-05-13T20:15:51.927Z,99472.48
2019-05-13T20:18:22.885Z,99466.75
2019-05-13T20:20:52.239Z,99472.50
2019-05-13T20:23:22.663Z,99473.45
2019-05-13T20:25:52.376Z,99471.59
2019-05-13T20:28:31.741Z,99470.56
2019-05-13T20:31:01.832Z,99475.34
2019-05-13T20:33:32.155Z,99469.56
2019-05-13T20:36:01.796Z,99472.05
2019-05-13T20:38:31.736Z,99472.34
2019-05-13T20:41:01.548Z,99476.82
2019-05-13T20:43:32.724Z,99474.59
2019-05-13T20:46:02.317Z,99479.05
2019-05-13T20:48:32.170Z,99476.34
2019-05-13T20:51:02.527Z,99488.01
2019-05-13T20:53:32.117Z,99484.22
2019-05-13T20:56:01.905Z,99478.78
2019-05-13T20:58:31.940Z,99484.50
2019-05-13T21:01:02.416Z,99480.68
2019-05-13T21:03:31.965Z,99480.95
2019-05-13T21:06:01.289Z,99480.13
2019-05-13T21:08:32.102Z,99477.44
2019-05-13T21:11:02.401Z,99478.86
2019-05-13T21:13:32.037Z,99478.69
2019-05-13T21:16:02.332Z,99480.11
2019-05-13T21:18:31.896Z,99475.53
2019-05-13T21:21:01.247Z,99468.25
2019-05-13T21:23:31.237Z,99471.34
2019-05-13T21:26:01.733Z,99472.12
2019-05-13T21:28:31.258Z,99470.78
2019-05-13T21:31:02.158Z,99473.82
2019-05-13T21:33:31.628Z,99471.06
2019-05-13T21:36:01.792Z,99470.02
2019-05-13T21:38:32.452Z,99470.84
2019-05-13T21:41:01.950Z,99470.27
2019-05-13T21:43:32.419Z,99467.77
2019-05-13T21:46:02.294Z,99476.29
2019-05-13T21:48:32.550Z,99475.74
2019-05-13T21:51:02.137Z,99467.15
2019-05-13T21:53:32.680Z,99468.77
2019-05-13T21:56:02.477Z,99461.88
2019-05-13T21:58:31.906Z,99461.09
2019-05-13T22:01:02.551Z,99461.09
2019-05-13T22:03:33.599Z,99453.63
2019-05-13T22:06:02.961Z,99461.92
2019-05-13T22:08:32.318Z,99459.17
2019-05-13T22:11:01.956Z,99455.04
2019-05-13T22:13:31.810Z,99459.42
2019-05-13T22:16:01.718Z,99461.09
2019-05-13T22:18:31.675Z,99466.06
2019-05-13T22:21:01.505Z,99459.42
2019-05-13T22:23:32.101Z,99455.00
2019-05-13T22:26:02.016Z,99453.08
2019-05-13T22:28:31.570Z,99451.35
2019-05-13T22:31:01.515Z,99449.48
2019-05-13T22:33:32.363Z,99452.24
2019-05-13T22:36:02.064Z,99450.03
2019-05-13T22:38:32.308Z,99446.48
2019-05-13T22:41:01.962Z,99436.87
2019-05-13T22:43:32.212Z,99443.80
2019-05-13T22:46:02.027Z,99436.08
2019-05-13T22:48:31.912Z,99441.88
2019-05-13T22:51:01.657Z,99447.42
2019-05-13T22:53:31.859Z,99443.33
2019-05-13T22:56:01.454Z,99440.63
2019-05-13T22:58:32.107Z,99436.19
2019-05-13T23:01:02.501Z,99444.24
2019-05-13T23:03:32.648Z,99430.00
2019-05-13T23:06:01.959Z,99429.19
2019-05-13T23:08:32.496Z,99436.97
2019-05-13T23:11:02.264Z,99438.34
2019-05-13T23:13:31.754Z,99432.85
2019-05-13T23:16:02.384Z,99433.93
2019-05-13T23:18:31.943Z,99427.89
2019-05-13T23:21:02.303Z,99426.50
2019-05-13T23:23:31.821Z,99427.88
2019-05-13T23:26:01.144Z,99421.85
2019-05-13T23:28:32.268Z,99417.39
2019-05-13T23:31:01.848Z,99419.09
2019-05-13T23:33:31.549Z,99418.22
2019-05-13T23:36:01.537Z,99421.22
2019-05-13T23:38:32.031Z,99411.08
2019-05-13T23:41:07.286Z,99412.69
2019-05-13T23:43:36.615Z,99408.78
2019-05-13T23:46:05.936Z,99407.97
2019-05-13T23:48:35.262Z,99409.06
2019-05-13T23:51:04.576Z,99408.22
2019-05-13T23:53:34.024Z,99411.22
2019-05-13T23:56:03.350Z,99404.60
2019-05-13T23:58:32.670Z,99402.97
